sensor_id;sensor_type;location;lat;lon;timestamp;P1;durP1;ratioP1;P2;durP2;ratioP2
74170;SDS011;62526;50.948;6.590;2023-04-03T00:01:17;5.30;;;3.00;;
74170;SDS011;62526;50.948;6.590;2023-04-03T00:03:44;3.67;;;3.10;;
74170;SDS011;62526;50.948;6.590;2023-04-03T00:06:10;5.47;;;3.10;;
74170;SDS011;62526;50.948;6.590;2023-04-03T00:08:37;5.00;;;2.87;;
74170;SDS011;62526;50.948;6.590;2023-04-03T00:11:03;3.27;;;2.40;;
74170;SDS011;62526;50.948;6.590;2023-04-03T00:13:30;4.17;;;2.60;;
74170;SDS011;62526;50.948;6.590;2023-04-03T00:15:56;3.17;;;2.60;;
74170;SDS011;62526;50.948;6.590;2023-04-03T00:18:23;4.50;;;3.20;;
74170;SDS011;62526;50.948;6.590;2023-04-03T00:20:50;5.27;;;3.17;;
74170;SDS011;62526;50.948;6.590;2023-04-03T00:23:16;5.63;;;3.37;;
74170;SDS011;62526;50.948;6.590;2023-04-03T00:25:43;6.17;;;3.40;;
74170;SDS011;62526;50.948;6.590;2023-04-03T00:28:09;3.70;;;3.30;;
74170;SDS011;62526;50.948;6.590;2023-04-03T00:30:36;4.90;;;3.53;;
74170;SDS011;62526;50.948;6.590;2023-04-03T00:33:03;6.13;;;3.57;;
74170;SDS011;62526;50.948;6.590;2023-04-03T00:35:29;4.33;;;3.30;;
74170;SDS011;62526;50.948;6.590;2023-04-03T00:37:56;4.17;;;2.90;;
74170;SDS011;62526;50.948;6.590;2023-04-03T00:40:23;8.63;;;3.83;;
74170;SDS011;62526;50.948;6.590;2023-04-03T00:42:51;5.67;;;3.70;;
74170;SDS011;62526;50.948;6.590;2023-04-03T00:45:34;5.57;;;3.83;;
74170;SDS011;62526;50.948;6.590;2023-04-03T00:47:58;7.23;;;4.10;;
74170;SDS011;62526;50.948;6.590;2023-04-03T00:50:26;4.13;;;3.63;;
74170;SDS011;62526;50.948;6.590;2023-04-03T00:52:51;4.03;;;2.93;;
74170;SDS011;62526;50.948;6.590;2023-04-03T00:55:18;4.97;;;4.20;;
74170;SDS011;62526;50.948;6.590;2023-04-03T00:57:44;6.73;;;3.50;;
74170;SDS011;62526;50.948;6.590;2023-04-03T01:00:12;5.77;;;4.27;;
74170;SDS011;62526;50.948;6.590;2023-04-03T01:02:38;5.83;;;3.83;;
74170;SDS011;62526;50.948;6.590;2023-04-03T01:05:08;5.67;;;3.83;;
74170;SDS011;62526;50.948;6.590;2023-04-03T01:07:34;4.37;;;3.50;;
74170;SDS011;62526;50.948;6.590;2023-04-03T01:10:02;4.97;;;3.53;;
74170;SDS011;62526;50.948;6.590;2023-04-03T01:12:30;4.50;;;3.53;;
74170;SDS011;62526;50.948;6.590;2023-04-03T01:14:57;6.67;;;3.97;;
74170;SDS011;62526;50.948;6.590;2023-04-03T01:17:30;6.07;;;3.63;;
74170;SDS011;62526;50.948;6.590;2023-04-03T01:20:00;4.93;;;4.37;;
74170;SDS011;62526;50.948;6.590;2023-04-03T01:22:25;5.43;;;4.13;;
74170;SDS011;62526;50.948;6.590;2023-04-03T01:24:50;8.00;;;4.50;;
74170;SDS011;62526;50.948;6.590;2023-04-03T01:27:16;5.00;;;4.17;;
74170;SDS011;62526;50.948;6.590;2023-04-03T01:29:43;5.07;;;3.70;;
74170;SDS011;62526;50.948;6.590;2023-04-03T01:32:10;12.17;;;4.40;;
74170;SDS011;62526;50.948;6.590;2023-04-03T01:34:36;6.33;;;4.40;;
74170;SDS011;62526;50.948;6.590;2023-04-03T01:37:03;5.23;;;3.87;;
74170;SDS011;62526;50.948;6.590;2023-04-03T01:39:29;7.97;;;4.03;;
74170;SDS011;62526;50.948;6.590;2023-04-03T01:41:56;7.90;;;4.20;;
74170;SDS011;62526;50.948;6.590;2023-04-03T01:44:23;5.77;;;4.03;;
74170;SDS011;62526;50.948;6.590;2023-04-03T01:46:49;7.53;;;4.10;;
74170;SDS011;62526;50.948;6.590;2023-04-03T01:49:16;8.37;;;5.03;;
74170;SDS011;62526;50.948;6.590;2023-04-03T01:51:42;10.53;;;5.40;;
74170;SDS011;62526;50.948;6.590;2023-04-03T01:54:09;10.23;;;5.10;;
74170;SDS011;62526;50.948;6.590;2023-04-03T01:56:36;6.67;;;4.30;;
74170;SDS011;62526;50.948;6.590;2023-04-03T01:59:02;8.73;;;5.23;;
74170;SDS011;62526;50.948;6.590;2023-04-03T02:01:29;12.10;;;5.60;;
74170;SDS011;62526;50.948;6.590;2023-04-03T02:03:55;10.83;;;5.63;;
74170;SDS011;62526;50.948;6.590;2023-04-03T02:06:22;10.93;;;5.60;;
74170;SDS011;62526;50.948;6.590;2023-04-03T02:08:49;13.47;;;5.20;;
74170;SDS011;62526;50.948;6.590;2023-04-03T02:11:15;14.03;;;5.37;;
74170;SDS011;62526;50.948;6.590;2023-04-03T02:13:42;7.90;;;5.73;;
74170;SDS011;62526;50.948;6.590;2023-04-03T02:16:09;20.07;;;5.93;;
74170;SDS011;62526;50.948;6.590;2023-04-03T02:18:35;9.47;;;5.30;;
74170;SDS011;62526;50.948;6.590;2023-04-03T02:21:02;13.10;;;5.73;;
74170;SDS011;62526;50.948;6.590;2023-04-03T02:23:29;11.90;;;5.93;;
74170;SDS011;62526;50.948;6.590;2023-04-03T02:26:02;11.43;;;5.43;;
74170;SDS011;62526;50.948;6.590;2023-04-03T02:28:30;9.47;;;5.47;;
74170;SDS011;62526;50.948;6.590;2023-04-03T02:30:56;9.60;;;5.83;;
74170;SDS011;62526;50.948;6.590;2023-04-03T02:33:23;8.50;;;5.77;;
74170;SDS011;62526;50.948;6.590;2023-04-03T02:35:53;12.27;;;5.73;;
74170;SDS011;62526;50.948;6.590;2023-04-03T02:38:19;7.90;;;6.17;;
74170;SDS011;62526;50.948;6.590;2023-04-03T02:40:45;6.87;;;5.60;;
74170;SDS011;62526;50.948;6.590;2023-04-03T02:43:12;8.17;;;5.40;;
74170;SDS011;62526;50.948;6.590;2023-04-03T02:45:39;8.83;;;5.83;;
74170;SDS011;62526;50.948;6.590;2023-04-03T02:48:05;10.23;;;6.07;;
74170;SDS011;62526;50.948;6.590;2023-04-03T02:50:32;13.63;;;5.93;;
74170;SDS011;62526;50.948;6.590;2023-04-03T02:52:58;10.23;;;6.23;;
74170;SDS011;62526;50.948;6.590;2023-04-03T02:55:25;9.00;;;6.13;;
74170;SDS011;62526;50.948;6.590;2023-04-03T02:57:52;10.30;;;6.17;;
74170;SDS011;62526;50.948;6.590;2023-04-03T03:00:18;9.00;;;6.43;;
74170;SDS011;62526;50.948;6.590;2023-04-03T03:02:45;11.53;;;6.70;;
74170;SDS011;62526;50.948;6.590;2023-04-03T03:05:12;9.50;;;6.00;;
74170;SDS011;62526;50.948;6.590;2023-04-03T03:07:39;9.40;;;6.10;;
74170;SDS011;62526;50.948;6.590;2023-04-03T03:10:05;11.40;;;5.90;;
74170;SDS011;62526;50.948;6.590;2023-04-03T03:12:32;11.57;;;6.67;;
74170;SDS011;62526;50.948;6.590;2023-04-03T03:14:59;10.97;;;7.00;;
74170;SDS011;62526;50.948;6.590;2023-04-03T03:17:25;8.80;;;6.17;;
74170;SDS011;62526;50.948;6.590;2023-04-03T03:19:52;7.60;;;6.27;;
74170;SDS011;62526;50.948;6.590;2023-04-03T03:22:19;10.50;;;6.30;;
74170;SDS011;62526;50.948;6.590;2023-04-03T03:24:45;10.37;;;6.20;;
74170;SDS011;62526;50.948;6.590;2023-04-03T03:27:12;8.13;;;6.17;;
74170;SDS011;62526;50.948;6.590;2023-04-03T03:29:38;9.87;;;5.87;;
74170;SDS011;62526;50.948;6.590;2023-04-03T03:32:05;10.70;;;5.93;;
74170;SDS011;62526;50.948;6.590;2023-04-03T03:34:32;11.87;;;6.37;;
74170;SDS011;62526;50.948;6.590;2023-04-03T03:36:58;8.33;;;5.80;;
74170;SDS011;62526;50.948;6.590;2023-04-03T03:39:25;9.17;;;5.93;;
74170;SDS011;62526;50.948;6.590;2023-04-03T03:41:51;13.37;;;5.67;;
74170;SDS011;62526;50.948;6.590;2023-04-03T03:44:18;9.47;;;6.20;;
74170;SDS011;62526;50.948;6.590;2023-04-03T03:46:45;9.13;;;5.07;;
74170;SDS011;62526;50.948;6.590;2023-04-03T03:49:11;8.87;;;5.33;;
74170;SDS011;62526;50.948;6.590;2023-04-03T03:51:38;6.80;;;4.87;;
74170;SDS011;62526;50.948;6.590;2023-04-03T03:54:04;9.93;;;5.37;;
74170;SDS011;62526;50.948;6.590;2023-04-03T03:56:31;7.80;;;4.87;;
74170;SDS011;62526;50.948;6.590;2023-04-03T03:58:58;7.37;;;4.97;;
74170;SDS011;62526;50.948;6.590;2023-04-03T04:01:25;9.83;;;4.50;;
74170;SDS011;62526;50.948;6.590;2023-04-03T04:03:51;10.23;;;4.83;;
74170;SDS011;62526;50.948;6.590;2023-04-03T04:06:18;10.07;;;4.50;;
74170;SDS011;62526;50.948;6.590;2023-04-03T04:08:44;9.97;;;4.70;;
74170;SDS011;62526;50.948;6.590;2023-04-03T04:11:11;8.50;;;4.27;;
74170;SDS011;62526;50.948;6.590;2023-04-03T04:13:37;9.33;;;4.20;;
74170;SDS011;62526;50.948;6.590;2023-04-03T04:16:04;6.67;;;4.23;;
74170;SDS011;62526;50.948;6.590;2023-04-03T04:18:31;8.70;;;4.23;;
74170;SDS011;62526;50.948;6.590;2023-04-03T04:20:58;8.57;;;4.10;;
74170;SDS011;62526;50.948;6.590;2023-04-03T04:23:24;8.23;;;4.00;;
74170;SDS011;62526;50.948;6.590;2023-04-03T04:25:51;7.67;;;4.17;;
74170;SDS011;62526;50.948;6.590;2023-04-03T04:28:18;8.93;;;4.10;;
74170;SDS011;62526;50.948;6.590;2023-04-03T04:30:44;9.70;;;4.10;;
74170;SDS011;62526;50.948;6.590;2023-04-03T04:33:11;7.53;;;3.43;;
74170;SDS011;62526;50.948;6.590;2023-04-03T04:35:44;4.83;;;4.07;;
74170;SDS011;62526;50.948;6.590;2023-04-03T04:38:10;7.00;;;3.97;;
74170;SDS011;62526;50.948;6.590;2023-04-03T04:40:37;6.93;;;4.27;;
74170;SDS011;62526;50.948;6.590;2023-04-03T04:43:04;6.57;;;3.90;;
74170;SDS011;62526;50.948;6.590;2023-04-03T04:45:30;6.83;;;4.20;;
74170;SDS011;62526;50.948;6.590;2023-04-03T04:47:57;10.73;;;4.07;;
74170;SDS011;62526;50.948;6.590;2023-04-03T04:50:23;6.83;;;3.87;;
74170;SDS011;62526;50.948;6.590;2023-04-03T04:52:50;7.10;;;3.90;;
74170;SDS011;62526;50.948;6.590;2023-04-03T04:55:16;5.33;;;4.07;;
74170;SDS011;62526;50.948;6.590;2023-04-03T04:57:43;6.93;;;3.67;;
74170;SDS011;62526;50.948;6.590;2023-04-03T05:00:10;6.87;;;3.60;;
74170;SDS011;62526;50.948;6.590;2023-04-03T05:02:37;6.87;;;3.70;;
74170;SDS011;62526;50.948;6.590;2023-04-03T05:05:04;5.57;;;3.77;;
74170;SDS011;62526;50.948;6.590;2023-04-03T05:07:30;5.77;;;3.37;;
74170;SDS011;62526;50.948;6.590;2023-04-03T05:09:57;3.50;;;3.20;;
74170;SDS011;62526;50.948;6.590;2023-04-03T05:12:24;6.57;;;3.20;;
74170;SDS011;62526;50.948;6.590;2023-04-03T05:14:50;7.90;;;3.50;;
74170;SDS011;62526;50.948;6.590;2023-04-03T05:17:17;5.43;;;3.47;;
74170;SDS011;62526;50.948;6.590;2023-04-03T05:19:43;5.80;;;3.63;;
74170;SDS011;62526;50.948;6.590;2023-04-03T05:22:10;5.97;;;3.17;;
74170;SDS011;62526;50.948;6.590;2023-04-03T05:24:37;7.40;;;3.27;;
74170;SDS011;62526;50.948;6.590;2023-04-03T05:27:03;5.43;;;3.63;;
74170;SDS011;62526;50.948;6.590;2023-04-03T05:29:30;4.70;;;3.47;;
74170;SDS011;62526;50.948;6.590;2023-04-03T05:31:56;6.63;;;3.23;;
74170;SDS011;62526;50.948;6.590;2023-04-03T05:34:23;4.53;;;3.33;;
74170;SDS011;62526;50.948;6.590;2023-04-03T05:36:50;6.43;;;3.10;;
74170;SDS011;62526;50.948;6.590;2023-04-03T05:39:16;6.40;;;2.90;;
74170;SDS011;62526;50.948;6.590;2023-04-03T05:41:43;7.03;;;3.30;;
74170;SDS011;62526;50.948;6.590;2023-04-03T05:44:09;4.00;;;3.13;;
74170;SDS011;62526;50.948;6.590;2023-04-03T05:46:36;4.23;;;2.90;;
74170;SDS011;62526;50.948;6.590;2023-04-03T05:49:03;15.00;;;3.30;;
74170;SDS011;62526;50.948;6.590;2023-04-03T05:51:31;5.93;;;3.00;;
74170;SDS011;62526;50.948;6.590;2023-04-03T05:53:58;7.50;;;3.33;;
74170;SDS011;62526;50.948;6.590;2023-04-03T05:56:25;4.23;;;2.70;;
74170;SDS011;62526;50.948;6.590;2023-04-03T05:58:52;7.30;;;3.10;;
74170;SDS011;62526;50.948;6.590;2023-04-03T06:01:19;7.10;;;2.83;;
74170;SDS011;62526;50.948;6.590;2023-04-03T06:03:45;5.43;;;2.60;;
74170;SDS011;62526;50.948;6.590;2023-04-03T06:06:13;3.83;;;3.17;;
74170;SDS011;62526;50.948;6.590;2023-04-03T06:08:39;10.13;;;3.03;;
74170;SDS011;62526;50.948;6.590;2023-04-03T06:11:06;3.83;;;2.60;;
74170;SDS011;62526;50.948;6.590;2023-04-03T06:13:32;5.53;;;2.80;;
74170;SDS011;62526;50.948;6.590;2023-04-03T06:16:07;7.07;;;2.73;;
74170;SDS011;62526;50.948;6.590;2023-04-03T06:18:44;6.77;;;3.23;;
74170;SDS011;62526;50.948;6.590;2023-04-03T06:21:11;5.10;;;2.87;;
74170;SDS011;62526;50.948;6.590;2023-04-03T06:23:40;8.17;;;2.60;;
74170;SDS011;62526;50.948;6.590;2023-04-03T06:26:08;4.80;;;2.73;;
74170;SDS011;62526;50.948;6.590;2023-04-03T06:28:35;13.20;;;2.70;;
74170;SDS011;62526;50.948;6.590;2023-04-03T06:31:01;8.33;;;3.07;;
74170;SDS011;62526;50.948;6.590;2023-04-03T06:33:28;5.67;;;2.83;;
74170;SDS011;62526;50.948;6.590;2023-04-03T06:35:56;6.50;;;2.57;;
74170;SDS011;62526;50.948;6.590;2023-04-03T06:38:22;5.43;;;2.90;;
74170;SDS011;62526;50.948;6.590;2023-04-03T06:40:48;5.57;;;2.90;;
74170;SDS011;62526;50.948;6.590;2023-04-03T06:43:15;5.43;;;2.67;;
74170;SDS011;62526;50.948;6.590;2023-04-03T06:45:42;3.07;;;2.30;;
74170;SDS011;62526;50.948;6.590;2023-04-03T06:48:08;6.33;;;2.50;;
74170;SDS011;62526;50.948;6.590;2023-04-03T06:50:35;8.60;;;2.50;;
74170;SDS011;62526;50.948;6.590;2023-04-03T06:53:01;6.50;;;2.70;;
74170;SDS011;62526;50.948;6.590;2023-04-03T06:55:28;4.80;;;2.57;;
74170;SDS011;62526;50.948;6.590;2023-04-03T06:57:55;4.50;;;2.53;;
74170;SDS011;62526;50.948;6.590;2023-04-03T07:00:21;3.37;;;2.27;;
74170;SDS011;62526;50.948;6.590;2023-04-03T07:02:48;2.83;;;2.30;;
74170;SDS011;62526;50.948;6.590;2023-04-03T07:05:14;4.73;;;2.87;;
74170;SDS011;62526;50.948;6.590;2023-04-03T07:07:41;4.83;;;2.90;;
74170;SDS011;62526;50.948;6.590;2023-04-03T07:10:08;6.70;;;2.53;;
74170;SDS011;62526;50.948;6.590;2023-04-03T07:12:34;5.63;;;2.70;;
74170;SDS011;62526;50.948;6.590;2023-04-03T07:15:01;11.17;;;2.87;;
74170;SDS011;62526;50.948;6.590;2023-04-03T07:17:28;4.50;;;2.83;;
74170;SDS011;62526;50.948;6.590;2023-04-03T07:19:54;6.27;;;2.70;;
74170;SDS011;62526;50.948;6.590;2023-04-03T07:22:21;5.57;;;2.67;;
74170;SDS011;62526;50.948;6.590;2023-04-03T07:24:47;3.77;;;2.67;;
74170;SDS011;62526;50.948;6.590;2023-04-03T07:27:14;4.83;;;2.57;;
74170;SDS011;62526;50.948;6.590;2023-04-03T07:29:41;6.60;;;2.70;;
74170;SDS011;62526;50.948;6.590;2023-04-03T07:32:07;4.50;;;2.20;;
74170;SDS011;62526;50.948;6.590;2023-04-03T07:34:34;4.57;;;1.90;;
74170;SDS011;62526;50.948;6.590;2023-04-03T07:37:00;5.40;;;2.90;;
74170;SDS011;62526;50.948;6.590;2023-04-03T07:39:27;3.77;;;2.20;;
74170;SDS011;62526;50.948;6.590;2023-04-03T07:41:54;3.20;;;2.20;;
74170;SDS011;62526;50.948;6.590;2023-04-03T07:44:21;4.40;;;2.37;;
74170;SDS011;62526;50.948;6.590;2023-04-03T07:46:47;5.33;;;2.43;;
74170;SDS011;62526;50.948;6.590;2023-04-03T07:49:14;5.67;;;2.67;;
74170;SDS011;62526;50.948;6.590;2023-04-03T07:51:41;5.17;;;2.63;;
74170;SDS011;62526;50.948;6.590;2023-04-03T07:54:07;3.93;;;1.70;;
74170;SDS011;62526;50.948;6.590;2023-04-03T07:56:34;4.13;;;2.40;;
74170;SDS011;62526;50.948;6.590;2023-04-03T07:59:00;7.60;;;2.60;;
74170;SDS011;62526;50.948;6.590;2023-04-03T08:01:27;3.50;;;2.10;;
74170;SDS011;62526;50.948;6.590;2023-04-03T08:03:54;4.87;;;2.63;;
74170;SDS011;62526;50.948;6.590;2023-04-03T08:06:20;5.00;;;2.37;;
74170;SDS011;62526;50.948;6.590;2023-04-03T08:08:47;5.73;;;1.90;;
74170;SDS011;62526;50.948;6.590;2023-04-03T08:11:13;12.43;;;3.27;;
74170;SDS011;62526;50.948;6.590;2023-04-03T08:13:40;5.93;;;2.37;;
74170;SDS011;62526;50.948;6.590;2023-04-03T08:16:09;4.67;;;2.73;;
74170;SDS011;62526;50.948;6.590;2023-04-03T08:18:34;9.63;;;2.73;;
74170;SDS011;62526;50.948;6.590;2023-04-03T08:21:04;3.87;;;2.03;;
74170;SDS011;62526;50.948;6.590;2023-04-03T08:23:27;4.13;;;2.60;;
74170;SDS011;62526;50.948;6.590;2023-04-03T08:25:54;4.67;;;2.20;;
74170;SDS011;62526;50.948;6.590;2023-04-03T08:28:21;4.70;;;2.10;;
74170;SDS011;62526;50.948;6.590;2023-04-03T08:30:47;6.70;;;2.63;;
74170;SDS011;62526;50.948;6.590;2023-04-03T08:35:48;5.03;;;2.60;;
74170;SDS011;62526;50.948;6.590;2023-04-03T08:38:14;6.40;;;2.27;;
74170;SDS011;62526;50.948;6.590;2023-04-03T08:40:41;3.87;;;2.30;;
74170;SDS011;62526;50.948;6.590;2023-04-03T08:43:16;6.10;;;2.13;;
74170;SDS011;62526;50.948;6.590;2023-04-03T08:45:44;4.00;;;2.20;;
74170;SDS011;62526;50.948;6.590;2023-04-03T08:48:12;4.40;;;2.00;;
74170;SDS011;62526;50.948;6.590;2023-04-03T08:50:40;3.73;;;1.77;;
74170;SDS011;62526;50.948;6.590;2023-04-03T08:53:06;4.17;;;2.00;;
74170;SDS011;62526;50.948;6.590;2023-04-03T08:55:34;5.23;;;1.80;;
74170;SDS011;62526;50.948;6.590;2023-04-03T08:58:00;5.57;;;2.10;;
74170;SDS011;62526;50.948;6.590;2023-04-03T09:00:28;3.93;;;2.13;;
74170;SDS011;62526;50.948;6.590;2023-04-03T09:02:55;6.63;;;1.93;;
74170;SDS011;62526;50.948;6.590;2023-04-03T09:08:01;3.10;;;1.70;;
74170;SDS011;62526;50.948;6.590;2023-04-03T09:10:27;6.57;;;1.80;;
74170;SDS011;62526;50.948;6.590;2023-04-03T09:12:57;4.37;;;1.90;;
74170;SDS011;62526;50.948;6.590;2023-04-03T09:15:21;3.10;;;1.77;;
74170;SDS011;62526;50.948;6.590;2023-04-03T09:18:04;3.80;;;1.50;;
74170;SDS011;62526;50.948;6.590;2023-04-03T09:20:43;3.57;;;1.73;;
74170;SDS011;62526;50.948;6.590;2023-04-03T09:23:14;2.43;;;1.13;;
74170;SDS011;62526;50.948;6.590;2023-04-03T09:25:43;2.60;;;1.90;;
74170;SDS011;62526;50.948;6.590;2023-04-03T09:28:09;2.17;;;1.50;;
74170;SDS011;62526;50.948;6.590;2023-04-03T09:30:36;2.03;;;1.60;;
74170;SDS011;62526;50.948;6.590;2023-04-03T09:35:43;2.07;;;1.27;;
74170;SDS011;62526;50.948;6.590;2023-04-03T09:38:18;4.77;;;1.57;;
74170;SDS011;62526;50.948;6.590;2023-04-03T09:40:49;3.50;;;1.70;;
74170;SDS011;62526;50.948;6.590;2023-04-03T09:43:20;1.93;;;1.50;;
74170;SDS011;62526;50.948;6.590;2023-04-03T09:45:45;1.60;;;1.50;;
74170;SDS011;62526;50.948;6.590;2023-04-03T09:48:17;3.27;;;1.50;;
74170;SDS011;62526;50.948;6.590;2023-04-03T09:53:26;8.73;;;1.60;;
74170;SDS011;62526;50.948;6.590;2023-04-03T09:55:51;4.33;;;1.67;;
74170;SDS011;62526;50.948;6.590;2023-04-03T10:00:54;3.03;;;1.53;;
74170;SDS011;62526;50.948;6.590;2023-04-03T10:03:25;1.73;;;1.30;;
74170;SDS011;62526;50.948;6.590;2023-04-03T10:05:51;3.77;;;1.83;;
74170;SDS011;62526;50.948;6.590;2023-04-03T10:08:27;3.00;;;1.70;;
74170;SDS011;62526;50.948;6.590;2023-04-03T10:10:48;2.57;;;1.57;;
74170;SDS011;62526;50.948;6.590;2023-04-03T10:13:16;4.03;;;1.80;;
74170;SDS011;62526;50.948;6.590;2023-04-03T10:15:43;3.80;;;1.80;;
74170;SDS011;62526;50.948;6.590;2023-04-03T10:18:21;4.23;;;1.87;;
74170;SDS011;62526;50.948;6.590;2023-04-03T10:20:48;3.97;;;1.67;;
74170;SDS011;62526;50.948;6.590;2023-04-03T10:23:21;2.70;;;1.67;;
74170;SDS011;62526;50.948;6.590;2023-04-03T10:25:51;4.57;;;1.70;;
74170;SDS011;62526;50.948;6.590;2023-04-03T10:28:24;2.07;;;1.57;;
74170;SDS011;62526;50.948;6.590;2023-04-03T10:32:12;2.00;;;1.60;;
74170;SDS011;62526;50.948;6.590;2023-04-03T10:33:56;1.47;;;1.30;;
74170;SDS011;62526;50.948;6.590;2023-04-03T10:36:23;4.70;;;1.50;;
74170;SDS011;62526;50.948;6.590;2023-04-03T10:39:08;3.47;;;1.60;;
74170;SDS011;62526;50.948;6.590;2023-04-03T10:41:40;1.87;;;1.57;;
74170;SDS011;62526;50.948;6.590;2023-04-03T10:44:36;5.20;;;1.70;;
74170;SDS011;62526;50.948;6.590;2023-04-03T10:47:11;5.60;;;1.50;;
74170;SDS011;62526;50.948;6.590;2023-04-03T10:50:15;4.13;;;1.80;;
74170;SDS011;62526;50.948;6.590;2023-04-03T10:52:41;2.03;;;1.33;;
74170;SDS011;62526;50.948;6.590;2023-04-03T10:55:18;2.40;;;1.60;;
74170;SDS011;62526;50.948;6.590;2023-04-03T10:57:55;4.00;;;1.23;;
74170;SDS011;62526;50.948;6.590;2023-04-03T11:00:23;1.93;;;1.27;;
74170;SDS011;62526;50.948;6.590;2023-04-03T11:02:51;1.30;;;1.10;;
74170;SDS011;62526;50.948;6.590;2023-04-03T11:05:25;2.53;;;1.60;;
74170;SDS011;62526;50.948;6.590;2023-04-03T11:08:04;2.07;;;1.40;;
74170;SDS011;62526;50.948;6.590;2023-04-03T11:10:35;3.67;;;1.57;;
74170;SDS011;62526;50.948;6.590;2023-04-03T11:13:06;2.93;;;1.40;;
74170;SDS011;62526;50.948;6.590;2023-04-03T11:15:44;2.17;;;1.40;;
74170;SDS011;62526;50.948;6.590;2023-04-03T11:18:11;6.17;;;1.70;;
74170;SDS011;62526;50.948;6.590;2023-04-03T11:20:37;2.50;;;1.37;;
74170;SDS011;62526;50.948;6.590;2023-04-03T11:23:05;5.30;;;1.57;;
74170;SDS011;62526;50.948;6.590;2023-04-03T11:25:33;2.83;;;1.50;;
74170;SDS011;62526;50.948;6.590;2023-04-03T11:27:59;4.30;;;1.67;;
74170;SDS011;62526;50.948;6.590;2023-04-03T11:30:28;1.47;;;1.33;;
74170;SDS011;62526;50.948;6.590;2023-04-03T11:35:42;2.97;;;1.47;;
74170;SDS011;62526;50.948;6.590;2023-04-03T11:38:10;2.10;;;1.70;;
74170;SDS011;62526;50.948;6.590;2023-04-03T11:40:35;4.70;;;1.33;;
74170;SDS011;62526;50.948;6.590;2023-04-03T11:43:03;3.73;;;1.50;;
74170;SDS011;62526;50.948;6.590;2023-04-03T11:45:32;4.30;;;1.60;;
74170;SDS011;62526;50.948;6.590;2023-04-03T11:48:03;3.47;;;1.63;;
74170;SDS011;62526;50.948;6.590;2023-04-03T11:50:32;4.87;;;2.17;;
74170;SDS011;62526;50.948;6.590;2023-04-03T11:53:28;3.90;;;1.70;;
74170;SDS011;62526;50.948;6.590;2023-04-03T11:55:57;4.07;;;1.73;;
74170;SDS011;62526;50.948;6.590;2023-04-03T11:58:24;3.33;;;1.45;;
74170;SDS011;62526;50.948;6.590;2023-04-03T12:00:51;1.83;;;1.42;;
74170;SDS011;62526;50.948;6.590;2023-04-03T12:06:52;1.60;;;1.33;;
74170;SDS011;62526;50.948;6.590;2023-04-03T12:11:49;2.85;;;1.83;;
74170;SDS011;62526;50.948;6.590;2023-04-03T12:14:15;3.65;;;1.75;;
74170;SDS011;62526;50.948;6.590;2023-04-03T12:16:45;5.28;;;1.83;;
74170;SDS011;62526;50.948;6.590;2023-04-03T12:19:30;2.90;;;1.20;;
74170;SDS011;62526;50.948;6.590;2023-04-03T12:22:12;1.67;;;1.48;;
74170;SDS011;62526;50.948;6.590;2023-04-03T12:24:40;3.45;;;1.50;;
74170;SDS011;62526;50.948;6.590;2023-04-03T12:27:14;2.40;;;1.45;;
74170;SDS011;62526;50.948;6.590;2023-04-03T12:29:43;2.87;;;1.30;;
74170;SDS011;62526;50.948;6.590;2023-04-03T12:37:40;3.33;;;1.65;;
74170;SDS011;62526;50.948;6.590;2023-04-03T12:41:36;2.37;;;1.30;;
74170;SDS011;62526;50.948;6.590;2023-04-03T12:43:28;3.00;;;1.40;;
74170;SDS011;62526;50.948;6.590;2023-04-03T12:48:52;4.43;;;1.40;;
74170;SDS011;62526;50.948;6.590;2023-04-03T12:51:22;2.10;;;1.40;;
74170;SDS011;62526;50.948;6.590;2023-04-03T12:53:48;2.60;;;1.50;;
74170;SDS011;62526;50.948;6.590;2023-04-03T12:56:20;3.87;;;1.45;;
74170;SDS011;62526;50.948;6.590;2023-04-03T12:58:51;2.42;;;1.40;;
74170;SDS011;62526;50.948;6.590;2023-04-03T13:01:18;2.05;;;1.60;;
74170;SDS011;62526;50.948;6.590;2023-04-03T13:03:54;2.50;;;1.95;;
74170;SDS011;62526;50.948;6.590;2023-04-03T13:06:21;2.03;;;1.48;;
74170;SDS011;62526;50.948;6.590;2023-04-03T13:08:54;2.45;;;1.75;;
74170;SDS011;62526;50.948;6.590;2023-04-03T13:11:19;3.90;;;1.48;;
74170;SDS011;62526;50.948;6.590;2023-04-03T13:16:19;3.12;;;1.40;;
74170;SDS011;62526;50.948;6.590;2023-04-03T13:18:50;1.75;;;1.30;;
74170;SDS011;62526;50.948;6.590;2023-04-03T13:21:14;2.08;;;1.20;;
74170;SDS011;62526;50.948;6.590;2023-04-03T13:23:40;2.37;;;1.42;;
74170;SDS011;62526;50.948;6.590;2023-04-03T13:26:06;2.80;;;1.50;;
74170;SDS011;62526;50.948;6.590;2023-04-03T13:28:34;1.95;;;1.40;;
74170;SDS011;62526;50.948;6.590;2023-04-03T13:31:15;2.40;;;1.20;;
74170;SDS011;62526;50.948;6.590;2023-04-03T13:33:55;1.92;;;1.30;;
74170;SDS011;62526;50.948;6.590;2023-04-03T13:36:22;3.65;;;1.48;;
74170;SDS011;62526;50.948;6.590;2023-04-03T13:41:30;1.48;;;1.17;;
74170;SDS011;62526;50.948;6.590;2023-04-03T13:44:14;1.58;;;1.12;;
74170;SDS011;62526;50.948;6.590;2023-04-03T13:46:25;1.25;;;1.15;;
74170;SDS011;62526;50.948;6.590;2023-04-03T13:48:53;2.83;;;1.40;;
74170;SDS011;62526;50.948;6.590;2023-04-03T13:51:21;2.65;;;1.40;;
74170;SDS011;62526;50.948;6.590;2023-04-03T13:53:50;1.55;;;1.30;;
74170;SDS011;62526;50.948;6.590;2023-04-03T13:56:19;2.80;;;1.30;;
74170;SDS011;62526;50.948;6.590;2023-04-03T13:59:01;1.52;;;1.20;;
74170;SDS011;62526;50.948;6.590;2023-04-03T14:01:33;4.05;;;1.50;;
74170;SDS011;62526;50.948;6.590;2023-04-03T14:04:00;3.85;;;1.83;;
74170;SDS011;62526;50.948;6.590;2023-04-03T14:06:25;1.58;;;1.35;;
74170;SDS011;62526;50.948;6.590;2023-04-03T14:08:52;1.50;;;1.30;;
74170;SDS011;62526;50.948;6.590;2023-04-03T14:11:20;1.50;;;1.25;;
74170;SDS011;62526;50.948;6.590;2023-04-03T14:13:48;1.87;;;1.45;;
74170;SDS011;62526;50.948;6.590;2023-04-03T14:16:15;2.97;;;1.95;;
74170;SDS011;62526;50.948;6.590;2023-04-03T14:18:41;1.20;;;1.10;;
74170;SDS011;62526;50.948;6.590;2023-04-03T14:21:09;2.40;;;1.20;;
74170;SDS011;62526;50.948;6.590;2023-04-03T14:23:34;3.55;;;1.45;;
74170;SDS011;62526;50.948;6.590;2023-04-03T14:26:01;2.10;;;1.40;;
74170;SDS011;62526;50.948;6.590;2023-04-03T14:28:28;5.30;;;1.70;;
74170;SDS011;62526;50.948;6.590;2023-04-03T14:30:54;1.75;;;1.50;;
74170;SDS011;62526;50.948;6.590;2023-04-03T14:33:22;1.50;;;1.25;;
74170;SDS011;62526;50.948;6.590;2023-04-03T14:35:49;2.12;;;1.40;;
74170;SDS011;62526;50.948;6.590;2023-04-03T14:38:21;3.08;;;1.30;;
74170;SDS011;62526;50.948;6.590;2023-04-03T14:40:49;1.90;;;1.40;;
74170;SDS011;62526;50.948;6.590;2023-04-03T14:43:16;2.60;;;1.70;;
74170;SDS011;62526;50.948;6.590;2023-04-03T14:45:43;1.30;;;1.17;;
74170;SDS011;62526;50.948;6.590;2023-04-03T14:48:11;3.40;;;1.60;;
74170;SDS011;62526;50.948;6.590;2023-04-03T14:50:36;3.33;;;1.42;;
74170;SDS011;62526;50.948;6.590;2023-04-03T14:53:02;3.67;;;1.60;;
74170;SDS011;62526;50.948;6.590;2023-04-03T14:55:29;2.90;;;1.70;;
74170;SDS011;62526;50.948;6.590;2023-04-03T14:57:56;4.80;;;1.70;;
74170;SDS011;62526;50.948;6.590;2023-04-03T15:00:22;3.20;;;1.75;;
74170;SDS011;62526;50.948;6.590;2023-04-03T15:02:49;3.87;;;1.67;;
74170;SDS011;62526;50.948;6.590;2023-04-03T15:05:15;3.20;;;1.50;;
74170;SDS011;62526;50.948;6.590;2023-04-03T15:07:45;2.50;;;1.40;;
74170;SDS011;62526;50.948;6.590;2023-04-03T15:10:17;6.07;;;1.42;;
74170;SDS011;62526;50.948;6.590;2023-04-03T15:12:42;1.62;;;1.50;;
74170;SDS011;62526;50.948;6.590;2023-04-03T15:15:08;2.58;;;1.67;;
74170;SDS011;62526;50.948;6.590;2023-04-03T15:17:35;2.53;;;1.80;;
74170;SDS011;62526;50.948;6.590;2023-04-03T15:20:02;2.12;;;1.55;;
74170;SDS011;62526;50.948;6.590;2023-04-03T15:22:29;2.12;;;1.52;;
74170;SDS011;62526;50.948;6.590;2023-04-03T15:24:55;2.97;;;1.52;;
74170;SDS011;62526;50.948;6.590;2023-04-03T15:41:22;5.45;;;1.62;;